Qiryat Yam, Israel
Current Conditions -  °F | °C
As of 2:50 PM on Saturday 20 Dec 2014 (Local Time) from LLHA Reporting Station
Scattered Clouds Scattered Clouds  
Wind Chill: 68°   Ceiling: Unl
Heat Index: 68°   Visibility: 6mi
Dew Point: 50°   Wind: 7mph
Humidity: 52%   Direction: 290°WNW
Pressure: 30.09"   Gusts: NA
Location:  32.84°N, 35.06°E
Report Text: LLHA 201250Z 29006KT 9999 SCT030 20/10 Q1019
Loading
Personal Weather Stations






























Interactive Weather Map New forecast layout! Learn more

10-Day Weather Forecast

Advertisements
Track Severe Weather on mobile